Time;durP1;ratioP1;P1;durP2;ratioP2;P2;SDS_P1;SDS_P2;PMS_P1;PMS_P2;Temp;Humidity;BMP_temperature;BMP_pressure;BME280_temperature;BME280_humidity;BME280_pressure;Samples;Min_cycle;Max_cycle;Signal;HPM_P1;HPM_P2
2023/06/26 00:00:19;;;;;;;11.93;7.38;;;20.60;99.90;;;;;;4927941;29;20039;-67
2023/06/26 00:02:45;;;;;;;7.90;6.57;;;20.60;99.90;;;;;;4926527;29;20042;-67
2023/06/26 00:05:11;;;;;;;8.85;7.03;;;20.60;99.90;;;;;;4928804;29;20039;-66
2023/06/26 00:07:37;;;;;;;9.25;7.70;;;20.60;99.90;;;;;;4929866;29;20036;-67
2023/06/26 00:10:04;;;;;;;8.43;7.38;;;20.60;99.90;;;;;;4931572;29;20077;-67
2023/06/26 00:12:30;;;;;;;7.90;7.00;;;20.60;99.90;;;;;;4940377;29;20093;-67
2023/06/26 00:14:56;;;;;;;9.10;7.80;;;20.60;99.90;;;;;;4926278;29;20059;-67
2023/06/26 00:17:22;;;;;;;9.15;7.57;;;20.60;99.90;;;;;;4926666;29;20277;-67
2023/06/26 00:19:48;;;;;;;11.60;7.65;;;20.60;99.90;;;;;;4936524;29;20144;-67
2023/06/26 00:22:14;;;;;;;10.48;7.28;;;20.50;99.90;;;;;;4937504;29;20042;-67
2023/06/26 00:24:40;;;;;;;11.30;8.07;;;20.50;99.90;;;;;;4929541;29;20043;-67
2023/06/26 00:27:06;;;;;;;9.32;8.05;;;20.60;99.90;;;;;;4926993;29;20064;-67
2023/06/26 00:29:32;;;;;;;9.45;8.30;;;20.60;99.90;;;;;;4925434;29;20155;-67
2023/06/26 00:31:57;;;;;;;8.95;7.75;;;20.60;99.90;;;;;;4928079;29;20669;-67
2023/06/26 00:34:23;;;;;;;10.70;8.05;;;20.60;99.90;;;;;;4930224;29;20028;-67
2023/06/26 00:36:49;;;;;;;12.15;9.23;;;20.60;99.90;;;;;;4922770;29;20055;-67
2023/06/26 00:39:15;;;;;;;10.77;8.48;;;20.60;99.90;;;;;;4918372;29;20039;-67
2023/06/26 00:41:41;;;;;;;9.32;8.07;;;20.60;99.90;;;;;;4937170;29;20055;-67
2023/06/26 00:44:07;;;;;;;10.40;8.55;;;20.60;99.90;;;;;;4932104;29;20028;-67
2023/06/26 00:46:34;;;;;;;10.25;8.75;;;20.60;99.90;;;;;;4923780;29;20031;-67
2023/06/26 00:49:03;;;;;;;12.02;8.48;;;20.60;99.90;;;;;;4917113;29;20448;-67
2023/06/26 00:51:30;;;;;;;13.68;9.10;;;20.60;99.90;;;;;;4927192;29;20115;-67
2023/06/26 00:53:57;;;;;;;9.25;7.75;;;20.60;99.90;;;;;;4926284;29;20075;-67
2023/06/26 00:56:23;;;;;;;9.27;8.27;;;20.50;99.90;;;;;;4918659;29;20167;-68
2023/06/26 00:58:49;;;;;;;13.65;9.32;;;20.50;99.90;;;;;;4924903;29;20800;-69
2023/06/26 01:01:21;;;;;;;11.07;8.32;;;20.50;99.90;;;;;;4935961;29;20808;-67
2023/06/26 01:03:53;;;;;;;9.77;8.13;;;20.40;99.90;;;;;;4934586;29;20856;-67
2023/06/26 01:06:21;;;;;;;10.05;9.05;;;20.40;99.90;;;;;;4930128;29;20039;-67
2023/06/26 01:08:48;;;;;;;13.07;8.80;;;20.40;99.90;;;;;;4933880;29;20039;-67
2023/06/26 01:11:15;;;;;;;12.40;8.35;;;20.40;99.90;;;;;;4913270;29;20031;-67
2023/06/26 01:13:43;;;;;;;10.02;8.63;;;20.40;99.90;;;;;;4920373;29;20031;-67
2023/06/26 01:16:10;;;;;;;9.48;8.48;;;20.40;99.90;;;;;;4929464;29;20823;-67
2023/06/26 01:18:41;;;;;;;8.30;7.50;;;20.40;99.90;;;;;;4929207;29;20032;-67
2023/06/26 01:21:09;;;;;;;9.38;8.13;;;20.30;99.90;;;;;;4929502;29;20403;-67
2023/06/26 01:24:05;;;;;;;8.75;7.30;;;20.30;99.90;;;;;;4936876;28;20035;-67
2023/06/26 01:26:35;;;;;;;10.38;8.55;;;20.30;99.90;;;;;;4912386;29;20447;-67
2023/06/26 01:29:02;;;;;;;13.45;7.70;;;20.30;99.90;;;;;;4934094;29;20432;-67
2023/06/26 01:31:30;;;;;;;8.95;8.02;;;20.30;99.90;;;;;;4929169;29;20038;-67
2023/06/26 01:33:59;;;;;;;10.57;8.18;;;20.30;99.90;;;;;;4929267;29;20187;-67
2023/06/26 01:36:25;;;;;;;9.95;8.35;;;20.30;99.90;;;;;;4929362;29;20035;-67
2023/06/26 01:38:51;;;;;;;10.23;8.07;;;20.30;99.90;;;;;;4929714;29;20038;-67
2023/06/26 01:41:18;;;;;;;10.48;8.00;;;20.30;99.90;;;;;;4922802;29;20039;-67
2023/06/26 01:43:57;;;;;;;11.68;8.57;;;20.30;99.90;;;;;;4937072;29;20028;-66
2023/06/26 01:46:36;;;;;;;12.77;8.50;;;20.30;99.90;;;;;;4912014;29;20031;-67
2023/06/26 01:49:56;;;;;;;9.88;7.97;;;20.20;99.90;;;;;;4926007;29;20031;-66
2023/06/26 01:52:35;;;;;;;10.32;8.40;;;20.20;99.90;;;;;;4909903;29;20755;-67
2023/06/26 01:55:04;;;;;;;9.52;8.43;;;20.10;99.90;;;;;;4924519;29;20044;-67
2023/06/26 01:57:31;;;;;;;10.45;8.88;;;20.00;99.90;;;;;;4915945;29;20035;-67
2023/06/26 01:59:59;;;;;;;11.95;7.95;;;20.00;99.90;;;;;;4943518;29;20039;-67
2023/06/26 02:02:28;;;;;;;9.63;7.90;;;20.00;99.90;;;;;;4934054;29;20476;-67
2023/06/26 02:04:53;;;;;;;10.18;8.20;;;19.90;99.90;;;;;;4943469;28;20116;-67
2023/06/26 02:07:19;;;;;;;9.50;7.68;;;19.90;99.90;;;;;;4911823;29;20483;-67
2023/06/26 02:09:45;;;;;;;11.07;8.38;;;19.80;99.90;;;;;;4922352;29;20039;-67
2023/06/26 02:12:11;;;;;;;10.32;8.32;;;19.80;99.90;;;;;;4943452;29;20097;-67
2023/06/26 02:14:37;;;;;;;9.55;7.95;;;19.90;99.90;;;;;;4943375;29;20039;-67
2023/06/26 02:17:03;;;;;;;9.40;8.05;;;19.90;99.90;;;;;;4935409;29;20154;-67
2023/06/26 02:19:28;;;;;;;12.93;7.70;;;19.90;99.90;;;;;;4929184;29;20547;-67
2023/06/26 02:21:54;;;;;;;10.25;7.93;;;19.90;99.90;;;;;;4939520;29;20087;-67
2023/06/26 02:24:23;;;;;;;11.23;7.80;;;20.00;99.90;;;;;;4942152;29;20039;-67
2023/06/26 02:26:49;;;;;;;8.68;7.72;;;20.00;99.90;;;;;;4925480;29;20027;-66
2023/06/26 02:29:15;;;;;;;8.45;7.53;;;20.10;99.90;;;;;;4929741;29;20036;-67
2023/06/26 02:31:41;;;;;;;12.25;7.68;;;20.20;99.90;;;;;;4914365;29;20087;-67
2023/06/26 02:34:07;;;;;;;9.32;8.18;;;20.20;99.90;;;;;;4911661;29;20032;-67
2023/06/26 02:36:33;;;;;;;9.45;7.65;;;20.30;99.90;;;;;;4919101;29;20036;-67
2023/06/26 02:38:59;;;;;;;12.45;8.30;;;20.40;99.90;;;;;;4915123;29;20719;-66
2023/06/26 02:41:25;;;;;;;9.70;8.68;;;20.40;99.90;;;;;;4911259;29;20448;-67
2023/06/26 02:43:51;;;;;;;12.73;8.65;;;20.40;99.90;;;;;;4911245;29;20392;-67
2023/06/26 02:46:17;;;;;;;9.32;8.25;;;20.50;99.90;;;;;;4911042;29;20055;-66
2023/06/26 02:48:43;;;;;;;9.43;7.47;;;20.40;99.90;;;;;;4913315;29;20143;-66
2023/06/26 02:51:09;;;;;;;10.85;8.23;;;20.40;99.90;;;;;;4910418;29;20059;-67
2023/06/26 02:53:35;;;;;;;12.77;8.60;;;20.40;99.90;;;;;;4930851;29;20092;-66
2023/06/26 02:56:01;;;;;;;11.32;8.07;;;20.30;99.90;;;;;;4910956;29;20064;-66
2023/06/26 02:58:27;;;;;;;9.25;8.25;;;20.30;99.90;;;;;;4912460;29;20075;-66
2023/06/26 03:00:53;;;;;;;10.82;7.38;;;20.20;99.90;;;;;;4933984;29;20031;-66
2023/06/26 03:03:19;;;;;;;8.32;7.50;;;20.20;99.90;;;;;;4910568;29;20032;-66
2023/06/26 03:05:45;;;;;;;9.40;7.57;;;20.20;99.90;;;;;;4930142;29;20034;-66
2023/06/26 03:08:12;;;;;;;9.07;7.20;;;20.10;99.90;;;;;;4938715;29;20773;-66
2023/06/26 03:10:38;;;;;;;8.40;7.50;;;20.00;99.90;;;;;;4926906;29;20039;-66
2023/06/26 03:13:04;;;;;;;7.60;6.88;;;20.00;99.90;;;;;;4911359;29;20123;-67
2023/06/26 03:15:31;;;;;;;8.23;6.72;;;19.90;99.90;;;;;;4910998;29;20036;-67
2023/06/26 03:17:57;;;;;;;9.65;7.20;;;19.90;99.90;;;;;;4939958;29;20121;-66
2023/06/26 03:20:26;;;;;;;8.48;7.40;;;19.90;99.90;;;;;;4914028;29;20127;-66
2023/06/26 03:22:53;;;;;;;8.48;6.65;;;19.90;99.90;;;;;;4926189;29;20035;-67
2023/06/26 03:25:20;;;;;;;7.63;6.47;;;20.00;99.90;;;;;;4935320;29;20039;-66
2023/06/26 03:27:47;;;;;;;9.45;7.20;;;20.00;99.90;;;;;;4933744;29;20030;-67
2023/06/26 03:30:15;;;;;;;7.75;6.53;;;20.00;99.90;;;;;;4921887;29;20027;-66
2023/06/26 03:32:43;;;;;;;8.43;6.88;;;20.00;99.90;;;;;;4927915;29;20035;-66
2023/06/26 03:35:10;;;;;;;9.63;7.20;;;19.90;99.90;;;;;;4915298;29;20033;-67
2023/06/26 03:37:36;;;;;;;9.98;7.55;;;19.90;99.90;;;;;;4927864;29;20048;-67
2023/06/26 03:40:03;;;;;;;8.18;7.22;;;19.90;99.90;;;;;;4916191;29;20071;-66
2023/06/26 03:42:30;;;;;;;9.05;7.18;;;19.90;99.90;;;;;;4932393;29;20036;-66
2023/06/26 03:44:56;;;;;;;8.15;6.68;;;19.90;99.90;;;;;;4916547;29;20028;-66
2023/06/26 03:47:22;;;;;;;9.40;6.88;;;19.90;99.90;;;;;;4930502;29;20039;-66
2023/06/26 03:49:47;;;;;;;9.27;7.55;;;19.90;99.90;;;;;;4930136;29;20035;-67
2023/06/26 03:52:13;;;;;;;7.90;6.28;;;19.90;99.90;;;;;;4931522;29;20086;-66
2023/06/26 03:54:39;;;;;;;7.97;6.78;;;19.90;99.90;;;;;;4913511;29;20032;-66
2023/06/26 03:57:05;;;;;;;8.55;7.18;;;19.90;99.90;;;;;;4904148;29;20138;-66
2023/06/26 03:59:31;;;;;;;8.55;7.18;;;20.00;99.90;;;;;;4916123;29;20859;-66
2023/06/26 04:01:58;;;;;;;9.93;7.53;;;20.00;99.90;;;;;;4930197;29;20139;-66
2023/06/26 04:04:24;;;;;;;8.50;6.85;;;20.00;99.90;;;;;;4909308;29;20035;-66
2023/06/26 04:06:50;;;;;;;9.10;7.50;;;20.00;99.90;;;;;;4914303;29;20035;-66
2023/06/26 04:09:16;;;;;;;8.43;6.53;;;20.00;99.90;;;;;;4910363;29;20055;-66
2023/06/26 04:11:43;;;;;;;8.57;6.72;;;20.10;99.90;;;;;;4910841;29;20038;-66
2023/06/26 04:14:09;;;;;;;7.43;6.65;;;20.10;99.90;;;;;;4936766;28;20031;-66
2023/06/26 04:16:35;;;;;;;9.63;6.95;;;20.10;99.90;;;;;;4931069;29;20134;-66
2023/06/26 04:19:02;;;;;;;7.90;6.90;;;20.10;99.90;;;;;;4927034;29;20124;-66
2023/06/26 04:21:28;;;;;;;7.80;6.88;;;20.10;99.90;;;;;;4933496;29;20050;-66
2023/06/26 04:23:54;;;;;;;7.60;6.70;;;20.20;99.90;;;;;;4930642;29;20028;-66
2023/06/26 04:26:19;;;;;;;7.50;6.68;;;20.30;99.90;;;;;;4926133;29;20039;-66
2023/06/26 04:28:45;;;;;;;9.75;7.88;;;20.30;99.90;;;;;;4930346;29;20034;-67
2023/06/26 04:31:11;;;;;;;8.10;7.30;;;20.30;99.90;;;;;;4938553;29;20023;-66
2023/06/26 04:33:37;;;;;;;9.25;6.90;;;20.30;99.90;;;;;;4927684;29;20028;-66
2023/06/26 04:36:04;;;;;;;9.00;7.03;;;20.30;99.90;;;;;;4930222;29;20027;-66
2023/06/26 04:38:31;;;;;;;8.48;7.38;;;20.30;99.90;;;;;;4937236;29;20028;-66
2023/06/26 04:40:57;;;;;;;8.18;7.38;;;20.40;99.90;;;;;;4926916;29;20119;-66
2023/06/26 04:43:23;;;;;;;9.05;7.75;;;20.40;99.90;;;;;;4931468;29;20777;-66
2023/06/26 04:45:48;;;;;;;10.68;7.72;;;20.30;99.90;;;;;;4931174;29;20102;-66
2023/06/26 04:48:14;;;;;;;9.15;7.88;;;20.30;99.90;;;;;;4931850;29;20779;-66
2023/06/26 04:50:40;;;;;;;9.20;7.63;;;20.40;99.90;;;;;;4926536;29;20039;-66
2023/06/26 04:53:06;;;;;;;9.55;8.25;;;20.30;99.90;;;;;;4936886;29;20492;-66
2023/06/26 04:55:32;;;;;;;8.82;7.93;;;20.40;99.90;;;;;;4936638;29;20418;-66
2023/06/26 04:57:58;;;;;;;9.88;7.88;;;20.40;99.90;;;;;;4926401;29;20040;-66
2023/06/26 05:00:24;;;;;;;10.10;7.97;;;20.40;99.90;;;;;;4926733;29;20043;-66
2023/06/26 05:03:00;;;;;;;11.45;8.45;;;20.50;99.90;;;;;;4926325;29;20070;-67
2023/06/26 05:05:26;;;;;;;9.07;7.80;;;20.60;99.90;;;;;;4930343;29;20046;-66
2023/06/26 05:07:54;;;;;;;11.27;8.00;;;20.60;99.90;;;;;;4932590;29;20095;-66
2023/06/26 05:10:19;;;;;;;10.75;8.00;;;20.60;99.90;;;;;;4932746;29;20050;-66
2023/06/26 05:12:45;;;;;;;13.75;8.05;;;20.70;99.90;;;;;;4930673;29;20115;-66
2023/06/26 05:15:11;;;;;;;9.98;7.90;;;20.70;99.90;;;;;;4930724;29;20038;-66
2023/06/26 05:17:36;;;;;;;10.80;7.75;;;20.70;99.90;;;;;;4927840;29;20785;-66
2023/06/26 05:20:03;;;;;;;11.65;8.65;;;20.70;99.90;;;;;;4926441;29;20055;-67
2023/06/26 05:22:29;;;;;;;10.57;7.30;;;20.80;99.90;;;;;;4932655;29;20039;-66
2023/06/26 05:24:59;;;;;;;11.57;7.57;;;20.80;99.90;;;;;;4935062;29;20569;-67
2023/06/26 05:27:25;;;;;;;10.18;8.85;;;20.90;99.90;;;;;;4929552;29;20513;-66
2023/06/26 05:29:51;;;;;;;10.07;8.95;;;21.00;99.90;;;;;;4926320;29;20031;-66
2023/06/26 05:32:20;;;;;;;10.60;8.43;;;21.10;99.90;;;;;;4929639;29;20435;-66
2023/06/26 05:34:48;;;;;;;10.00;8.05;;;21.20;99.90;;;;;;4934311;28;20023;-66
2023/06/26 05:37:20;;;;;;;10.98;7.82;;;21.20;99.90;;;;;;4929555;29;20036;-66
2023/06/26 05:39:46;;;;;;;10.88;8.20;;;21.30;99.90;;;;;;4932453;29;20036;-66
2023/06/26 05:42:12;;;;;;;9.23;7.93;;;21.30;99.90;;;;;;4927746;29;20554;-66
2023/06/26 05:44:38;;;;;;;7.97;7.13;;;21.40;99.90;;;;;;4932277;28;20027;-66
2023/06/26 05:47:04;;;;;;;11.27;7.82;;;21.50;99.90;;;;;;4929619;29;20857;-66
2023/06/26 05:49:30;;;;;;;9.13;7.45;;;21.60;99.90;;;;;;4934624;29;20126;-66
2023/06/26 05:51:56;;;;;;;7.95;6.85;;;21.70;99.90;;;;;;4930326;29;20126;-66
2023/06/26 05:54:24;;;;;;;7.72;6.97;;;21.70;99.90;;;;;;4942163;28;20042;-66
2023/06/26 05:56:55;;;;;;;8.80;7.53;;;21.80;99.90;;;;;;4920573;29;20040;-66
2023/06/26 05:59:23;;;;;;;7.18;6.45;;;21.90;99.90;;;;;;4944340;29;20047;-66
2023/06/26 06:01:48;;;;;;;7.47;6.78;;;21.90;99.90;;;;;;4931608;29;20078;-66
2023/06/26 06:04:14;;;;;;;9.10;7.20;;;22.00;99.90;;;;;;4932377;29;20075;-66
2023/06/26 06:06:40;;;;;;;7.10;6.40;;;22.10;99.90;;;;;;4936617;29;20031;-66
2023/06/26 06:09:06;;;;;;;9.45;6.68;;;22.30;99.90;;;;;;4928454;29;20031;-66
2023/06/26 06:11:32;;;;;;;6.68;6.07;;;22.40;99.90;;;;;;4929012;29;20051;-66
2023/06/26 06:13:59;;;;;;;7.55;6.68;;;22.50;99.90;;;;;;4927961;29;20032;-66
2023/06/26 06:16:25;;;;;;;7.80;6.78;;;22.60;99.90;;;;;;4928306;29;20032;-66
2023/06/26 06:18:51;;;;;;;6.55;5.70;;;22.80;99.90;;;;;;4928058;29;20031;-66
2023/06/26 06:21:17;;;;;;;7.25;6.20;;;22.90;99.90;;;;;;4935681;29;20093;-66
2023/06/26 06:23:42;;;;;;;7.85;6.70;;;23.00;99.90;;;;;;4931875;29;20086;-66
2023/06/26 06:26:08;;;;;;;8.57;6.63;;;23.20;99.90;;;;;;4938128;29;20380;-66
2023/06/26 06:28:34;;;;;;;6.60;5.90;;;23.30;99.90;;;;;;4929262;29;20087;-66
2023/06/26 06:31:00;;;;;;;7.68;5.57;;;23.30;99.90;;;;;;4928154;29;20054;-66
2023/06/26 06:33:25;;;;;;;6.72;6.03;;;23.50;99.90;;;;;;4933405;29;20500;-66
2023/06/26 06:35:51;;;;;;;10.70;6.47;;;23.50;99.90;;;;;;4936408;29;20064;-66
2023/06/26 06:38:17;;;;;;;9.15;5.63;;;23.60;99.90;;;;;;4930414;29;20103;-66
2023/06/26 06:40:43;;;;;;;9.55;6.00;;;23.70;99.90;;;;;;4934953;29;20050;-66
2023/06/26 06:43:08;;;;;;;7.60;5.85;;;23.80;99.90;;;;;;4931380;29;20056;-66
2023/06/26 06:45:34;;;;;;;7.80;5.20;;;23.90;99.90;;;;;;4932152;29;20584;-66
2023/06/26 06:48:00;;;;;;;7.07;6.18;;;24.00;99.90;;;;;;4942553;29;20028;-66
2023/06/26 06:50:26;;;;;;;6.75;6.00;;;24.10;99.90;;;;;;4927534;29;20043;-66
2023/06/26 06:52:51;;;;;;;7.13;5.70;;;24.10;99.90;;;;;;4922020;29;20535;-66
2023/06/26 06:55:17;;;;;;;7.40;6.28;;;24.30;99.90;;;;;;4933115;29;20032;-66
2023/06/26 06:57:43;;;;;;;6.75;5.97;;;24.40;99.90;;;;;;4929940;29;20063;-66
2023/06/26 07:00:13;;;;;;;11.75;5.43;;;24.50;99.50;;;;;;4932944;29;20126;-66
2023/06/26 07:02:42;;;;;;;7.30;5.40;;;24.60;99.40;;;;;;4936492;29;20066;-66
2023/06/26 07:05:09;;;;;;;6.40;5.47;;;24.70;98.80;;;;;;4927091;29;20038;-66
2023/06/26 07:07:37;;;;;;;6.63;5.93;;;24.70;99.60;;;;;;4927317;29;20554;-66
2023/06/26 07:10:11;;;;;;;7.65;5.47;;;24.90;99.40;;;;;;4936124;29;20027;-66
2023/06/26 07:12:38;;;;;;;5.40;4.90;;;25.00;97.60;;;;;;4929300;29;20031;-66
2023/06/26 07:15:05;;;;;;;6.47;5.35;;;25.00;96.60;;;;;;4938240;29;20082;-66
2023/06/26 07:17:31;;;;;;;6.75;5.78;;;25.00;97.00;;;;;;4933233;29;20034;-66
2023/06/26 07:19:57;;;;;;;9.70;5.80;;;25.10;97.20;;;;;;4930304;29;20064;-66
2023/06/26 07:22:23;;;;;;;7.38;5.57;;;25.20;97.60;;;;;;4927319;29;20168;-66
2023/06/26 07:24:49;;;;;;;6.43;5.25;;;25.30;96.30;;;;;;4931877;29;20715;-67
2023/06/26 07:27:16;;;;;;;5.63;4.82;;;25.50;95.80;;;;;;4930997;29;20039;-66
2023/06/26 07:29:42;;;;;;;7.00;5.80;;;25.50;94.70;;;;;;4932430;29;20083;-66
2023/06/26 07:32:08;;;;;;;6.20;5.10;;;25.40;95.30;;;;;;4931533;29;20042;-66
2023/06/26 07:34:34;;;;;;;6.75;5.57;;;25.50;95.40;;;;;;4939924;28;20028;-66
2023/06/26 07:37:00;;;;;;;8.40;5.00;;;25.50;94.80;;;;;;4925714;29;20040;-67
2023/06/26 07:39:26;;;;;;;6.28;5.35;;;25.60;95.40;;;;;;4935282;29;20040;-66
2023/06/26 07:41:51;;;;;;;5.53;4.75;;;25.80;95.00;;;;;;4934213;29;20399;-66
2023/06/26 07:44:17;;;;;;;5.90;4.60;;;25.80;94.60;;;;;;4938551;28;20046;-66
2023/06/26 07:46:44;;;;;;;5.05;4.50;;;25.80;94.10;;;;;;4932624;29;20043;-66
2023/06/26 07:49:11;;;;;;;6.90;4.80;;;25.90;93.80;;;;;;4935919;29;20031;-66
2023/06/26 07:51:36;;;;;;;5.45;4.60;;;26.00;93.40;;;;;;4933425;29;20369;-66
2023/06/26 07:54:02;;;;;;;6.65;4.97;;;26.10;92.60;;;;;;4940591;28;20111;-66
2023/06/26 07:56:28;;;;;;;5.53;4.50;;;26.00;91.90;;;;;;4927216;29;20086;-66
2023/06/26 07:58:54;;;;;;;5.72;3.95;;;26.10;91.50;;;;;;4936725;29;20042;-67
2023/06/26 08:01:20;;;;;;;6.82;4.13;;;26.00;91.40;;;;;;4930872;29;20051;-66
2023/06/26 08:03:46;;;;;;;4.85;4.35;;;26.10;91.30;;;;;;4926805;29;20041;-66
2023/06/26 08:06:11;;;;;;;4.95;4.03;;;26.20;90.90;;;;;;4929141;29;20043;-66
2023/06/26 08:08:37;;;;;;;6.70;4.13;;;26.30;91.00;;;;;;4925737;29;20834;-66
2023/06/26 08:11:03;;;;;;;4.95;4.45;;;26.30;91.10;;;;;;4926202;29;20035;-66
2023/06/26 08:13:29;;;;;;;8.90;4.45;;;26.30;90.50;;;;;;4926612;29;20068;-67
2023/06/26 08:15:54;;;;;;;5.18;4.60;;;26.40;90.20;;;;;;4926200;29;20031;-65
2023/06/26 08:18:20;;;;;;;4.57;4.18;;;26.40;90.30;;;;;;4932400;29;20514;-67
2023/06/26 08:20:46;;;;;;;6.25;4.50;;;26.50;91.70;;;;;;4926776;29;20036;-66
2023/06/26 08:23:12;;;;;;;4.32;3.92;;;26.60;89.80;;;;;;4932548;29;20050;-66
2023/06/26 08:25:38;;;;;;;4.85;4.03;;;26.60;89.20;;;;;;4928129;29;20146;-67
2023/06/26 08:28:03;;;;;;;5.63;3.90;;;26.70;89.10;;;;;;4932295;29;20065;-66
2023/06/26 08:30:29;;;;;;;6.18;4.15;;;26.80;87.00;;;;;;4931224;29;20051;-66
2023/06/26 08:32:56;;;;;;;4.53;3.92;;;26.80;87.60;;;;;;4927750;28;20087;-66
2023/06/26 08:35:21;;;;;;;4.30;3.35;;;26.80;88.30;;;;;;4935809;29;20073;-66
2023/06/26 08:37:47;;;;;;;5.43;3.90;;;26.90;86.20;;;;;;4928460;29;20059;-67
2023/06/26 08:40:17;;;;;;;5.97;4.25;;;26.90;86.20;;;;;;4931936;29;20039;-67
2023/06/26 08:42:43;;;;;;;7.78;4.35;;;27.00;86.90;;;;;;4929925;29;20478;-66
2023/06/26 08:45:08;;;;;;;4.28;3.88;;;27.00;86.00;;;;;;4927487;29;20028;-66
2023/06/26 08:47:35;;;;;;;10.82;4.32;;;27.10;84.20;;;;;;4935967;29;20040;-66
2023/06/26 08:50:04;;;;;;;5.95;4.07;;;27.20;84.80;;;;;;4925383;29;20042;-66
2023/06/26 08:52:35;;;;;;;5.03;3.55;;;27.30;84.00;;;;;;4931749;29;20031;-66
2023/06/26 08:55:04;;;;;;;6.05;4.57;;;27.40;85.30;;;;;;4928607;29;20031;-66
2023/06/26 08:57:31;;;;;;;6.40;4.72;;;27.50;84.20;;;;;;4936343;29;20040;-66
2023/06/26 08:59:57;;;;;;;4.95;4.13;;;27.50;84.00;;;;;;4929207;29;20039;-66
2023/06/26 09:02:24;;;;;;;6.55;4.90;;;27.60;84.30;;;;;;4930239;29;20384;-66
2023/06/26 09:04:50;;;;;;;4.47;3.83;;;27.70;83.20;;;;;;4919089;29;20124;-66
2023/06/26 09:07:16;;;;;;;4.68;4.13;;;27.70;80.80;;;;;;4926065;29;20511;-66
2023/06/26 09:09:42;;;;;;;5.47;3.85;;;27.70;81.50;;;;;;4926013;29;20071;-66
2023/06/26 09:12:09;;;;;;;7.43;4.03;;;27.80;83.70;;;;;;4921608;29;20031;-66
2023/06/26 09:14:36;;;;;;;8.68;4.10;;;27.90;81.70;;;;;;4935887;28;20735;-66
2023/06/26 09:17:02;;;;;;;5.82;4.10;;;28.00;79.20;;;;;;4926141;29;20048;-66
2023/06/26 09:19:28;;;;;;;3.97;3.67;;;28.10;79.00;;;;;;4928632;29;20815;-66
2023/06/26 09:21:54;;;;;;;6.20;4.40;;;28.10;78.50;;;;;;4941113;29;20115;-67
2023/06/26 09:24:21;;;;;;;5.82;4.22;;;28.00;80.10;;;;;;4932992;29;20040;-66
2023/06/26 09:26:47;;;;;;;4.38;3.97;;;28.10;80.30;;;;;;4929379;29;20399;-66
2023/06/26 09:29:14;;;;;;;3.97;3.58;;;28.20;81.20;;;;;;4939048;29;20574;-65
2023/06/26 09:31:40;;;;;;;4.70;4.00;;;28.30;79.20;;;;;;4931947;29;20036;-66
2023/06/26 09:34:06;;;;;;;4.10;3.67;;;28.40;77.90;;;;;;4929677;29;20031;-66
2023/06/26 09:36:33;;;;;;;4.22;3.55;;;28.50;76.20;;;;;;4936438;29;20027;-66
2023/06/26 09:39:14;;;;;;;5.95;3.60;;;28.50;76.50;;;;;;4933198;29;20055;-66
2023/06/26 09:41:44;;;;;;;4.60;3.88;;;28.70;77.60;;;;;;4934323;29;20063;-66
2023/06/26 09:44:14;;;;;;;4.80;3.50;;;28.90;76.70;;;;;;4933699;29;20067;-67
2023/06/26 09:46:40;;;;;;;4.22;3.63;;;29.20;75.20;;;;;;4932301;29;20656;-67
2023/06/26 09:49:08;;;;;;;4.78;3.28;;;29.30;72.00;;;;;;4931262;29;20062;-66
2023/06/26 09:51:35;;;;;;;3.60;3.30;;;29.40;71.60;;;;;;4933306;29;20067;-66
2023/06/26 09:54:02;;;;;;;3.05;2.78;;;29.20;69.80;;;;;;4933242;29;20035;-66
2023/06/26 09:56:29;;;;;;;4.03;3.00;;;29.20;72.20;;;;;;4943255;29;20035;-66
2023/06/26 09:59:01;;;;;;;6.63;3.15;;;29.20;71.90;;;;;;4937711;29;20032;-66
2023/06/26 10:01:27;;;;;;;4.93;3.08;;;29.20;68.60;;;;;;4933912;29;20039;-67
2023/06/26 10:03:56;;;;;;;3.40;3.00;;;29.30;68.70;;;;;;4939723;28;20024;-67
2023/06/26 10:06:28;;;;;;;3.28;2.88;;;29.30;66.70;;;;;;4932895;29;20032;-67
2023/06/26 10:08:56;;;;;;;4.68;3.25;;;29.30;67.40;;;;;;4940450;29;20031;-66
2023/06/26 10:11:24;;;;;;;4.18;3.20;;;29.30;69.30;;;;;;4933550;29;20040;-67
2023/06/26 10:13:51;;;;;;;4.28;3.00;;;29.30;69.60;;;;;;4943382;28;20031;-67
2023/06/26 10:16:23;;;;;;;3.67;3.38;;;29.50;67.10;;;;;;4937509;29;20047;-66
2023/06/26 10:18:52;;;;;;;3.83;3.08;;;29.50;68.20;;;;;;4932251;29;20035;-67
2023/06/26 10:21:20;;;;;;;6.20;2.95;;;29.60;67.90;;;;;;4929634;29;20071;-66
2023/06/26 10:23:46;;;;;;;3.20;2.55;;;29.60;67.80;;;;;;4934968;28;20080;-66
2023/06/26 10:26:14;;;;;;;4.63;3.13;;;29.60;62.80;;;;;;4933679;29;20039;-67
2023/06/26 10:28:42;;;;;;;6.63;3.20;;;29.50;63.70;;;;;;4937974;29;20462;-66
2023/06/26 10:31:11;;;;;;;4.13;3.55;;;29.50;62.40;;;;;;4935064;29;20043;-67
2023/06/26 10:33:38;;;;;;;3.60;3.30;;;29.60;64.70;;;;;;4933641;29;20039;-66
2023/06/26 10:36:18;;;;;;;3.50;2.75;;;29.80;65.90;;;;;;4929564;29;20031;-66
2023/06/26 10:38:56;;;;;;;3.15;2.80;;;30.10;61.90;;;;;;4931670;29;20130;-66
2023/06/26 10:41:25;;;;;;;3.72;3.25;;;30.30;63.10;;;;;;4938957;29;20031;-64
2023/06/26 10:44:00;;;;;;;3.85;3.35;;;30.60;61.60;;;;;;4927990;29;20028;-66
2023/06/26 10:46:26;;;;;;;3.97;3.58;;;30.90;63.50;;;;;;4932803;29;20119;-66
2023/06/26 10:48:59;;;;;;;7.35;3.97;;;31.30;60.70;;;;;;4928192;29;20107;-67
2023/06/26 10:51:28;;;;;;;6.40;3.55;;;31.30;58.40;;;;;;4933489;29;20035;-67
2023/06/26 10:53:56;;;;;;;3.75;3.25;;;31.30;59.60;;;;;;4933710;28;20070;-66
2023/06/26 10:56:40;;;;;;;6.03;3.92;;;31.40;58.60;;;;;;4929899;29;20043;-66
2023/06/26 10:59:20;;;;;;;3.97;3.42;;;31.30;57.80;;;;;;4922869;29;20035;-67
2023/06/26 11:01:57;;;;;;;5.25;3.63;;;31.40;58.70;;;;;;4934527;29;20066;-66
2023/06/26 11:04:44;;;;;;;3.50;3.20;;;31.60;57.10;;;;;;4934164;29;20043;-67
2023/06/26 11:07:19;;;;;;;3.85;3.47;;;31.40;56.30;;;;;;4935311;29;20114;-66
2023/06/26 11:10:00;;;;;;;3.63;3.30;;;31.30;58.70;;;;;;4936928;29;20399;-66
2023/06/26 11:12:36;;;;;;;3.97;3.53;;;31.00;59.40;;;;;;4929159;29;20039;-67
2023/06/26 11:15:13;;;;;;;3.58;3.28;;;30.90;58.10;;;;;;4928634;29;20038;-66
2023/06/26 11:17:40;;;;;;;4.03;3.42;;;30.80;58.70;;;;;;4927505;29;20050;-67
2023/06/26 11:20:09;;;;;;;4.82;3.47;;;30.70;59.60;;;;;;4934543;29;20036;-67
2023/06/26 11:22:37;;;;;;;4.40;4.00;;;30.60;60.70;;;;;;4928783;29;20031;-66
2023/06/26 11:25:04;;;;;;;4.85;4.07;;;30.70;61.70;;;;;;4933009;29;20094;-66
2023/06/26 11:27:43;;;;;;;6.20;4.00;;;30.60;59.90;;;;;;4938632;29;20047;-66
2023/06/26 11:30:11;;;;;;;3.55;3.25;;;30.60;62.70;;;;;;4928284;29;20535;-66
2023/06/26 11:32:40;;;;;;;5.32;4.00;;;30.80;62.40;;;;;;4937429;29;20039;-66
2023/06/26 11:35:06;;;;;;;4.47;4.07;;;30.90;61.00;;;;;;4940113;29;20039;-67
2023/06/26 11:37:32;;;;;;;4.78;3.95;;;30.70;59.30;;;;;;4929932;29;20047;-67
2023/06/26 11:39:58;;;;;;;4.82;4.10;;;30.60;62.50;;;;;;4913624;29;20058;-66
2023/06/26 11:42:25;;;;;;;4.70;3.83;;;30.50;60.10;;;;;;4931653;29;20071;-67
2023/06/26 11:44:52;;;;;;;4.53;4.13;;;30.50;61.30;;;;;;4928730;29;20223;-67
2023/06/26 11:47:19;;;;;;;5.53;4.20;;;30.60;62.20;;;;;;4929775;29;20127;-67
2023/06/26 11:49:47;;;;;;;5.65;4.30;;;30.70;58.90;;;;;;4927905;29;20055;-67
2023/06/26 11:52:14;;;;;;;4.40;3.88;;;30.80;60.50;;;;;;4934321;29;20031;-67
2023/06/26 11:54:41;;;;;;;5.28;4.30;;;30.80;60.90;;;;;;4929221;29;20063;-66
2023/06/26 11:57:08;;;;;;;5.00;4.47;;;30.90;61.20;;;;;;4932884;29;20032;-67
2023/06/26 11:59:39;;;;;;;4.43;4.03;;;31.00;62.00;;;;;;4935052;29;20035;-67
2023/06/26 12:02:09;;;;;;;4.68;4.13;;;30.90;61.70;;;;;;4937735;29;20807;-67
2023/06/26 12:04:38;;;;;;;5.10;4.60;;;30.90;61.80;;;;;;4929073;29;20037;-67
2023/06/26 12:07:08;;;;;;;4.70;4.30;;;30.90;61.70;;;;;;4930276;29;20042;-66
2023/06/26 12:09:43;;;;;;;6.35;4.88;;;30.90;61.90;;;;;;4930045;29;20487;-66
2023/06/26 12:12:11;;;;;;;5.45;4.35;;;30.90;61.20;;;;;;4927492;29;20066;-67
2023/06/26 12:14:37;;;;;;;5.72;4.20;;;30.90;61.10;;;;;;4927970;29;20039;-67
2023/06/26 12:17:10;;;;;;;5.70;4.32;;;30.90;61.90;;;;;;4928373;29;20118;-67
2023/06/26 12:19:43;;;;;;;5.35;4.50;;;30.90;61.20;;;;;;4928648;29;20035;-64
2023/06/26 12:22:10;;;;;;;5.47;4.30;;;30.90;59.60;;;;;;4927928;29;20399;-67
2023/06/26 12:24:40;;;;;;;5.53;4.10;;;30.80;59.50;;;;;;4932070;29;20045;-67
2023/06/26 12:27:10;;;;;;;6.68;4.45;;;30.70;59.70;;;;;;4927610;29;20039;-67
2023/06/26 12:29:37;;;;;;;8.20;4.45;;;30.70;62.00;;;;;;4927144;29;20042;-67
2023/06/26 12:32:03;;;;;;;4.70;4.28;;;30.70;61.80;;;;;;4926744;29;20036;-67
2023/06/26 12:34:34;;;;;;;7.78;4.57;;;30.90;59.60;;;;;;4927715;29;20035;-67
2023/06/26 12:37:06;;;;;;;4.63;4.22;;;30.90;59.30;;;;;;4932027;29;20035;-67
2023/06/26 12:39:52;;;;;;;5.25;4.55;;;31.00;57.90;;;;;;4928745;29;20076;-67
2023/06/26 12:42:23;;;;;;;6.00;4.82;;;30.90;58.70;;;;;;4908456;29;20058;-67
2023/06/26 12:44:50;;;;;;;4.57;4.13;;;31.00;59.20;;;;;;4927732;29;20131;-67
2023/06/26 12:47:17;;;;;;;5.28;4.25;;;31.10;58.00;;;;;;4937381;29;20534;-67